createdAt,value
2023-03-11T00:00:58.714Z,0.00
2023-03-11T00:01:58.742Z,0.00
2023-03-11T00:02:58.677Z,0.00
2023-03-11T00:03:58.659Z,0.00
2023-03-11T00:04:58.766Z,0.00
2023-03-11T00:05:58.654Z,0.00
2023-03-11T00:06:58.629Z,0.00
2023-03-11T00:07:58.607Z,0.00
2023-03-11T00:08:58.617Z,0.00
2023-03-11T00:09:58.591Z,0.00
2023-03-11T00:10:58.610Z,0.00
2023-03-11T00:11:58.559Z,0.00
2023-03-11T00:12:58.558Z,0.00
2023-03-11T00:13:58.546Z,0.00
2023-03-11T00:14:58.528Z,0.00
2023-03-11T00:15:58.506Z,0.00
2023-03-11T00:16:58.553Z,0.00
2023-03-11T00:17:58.490Z,0.00
2023-03-11T00:18:58.475Z,0.00
2023-03-11T00:19:58.454Z,0.00
2023-03-11T00:20:59.399Z,0.00
2023-03-11T00:21:59.387Z,0.00
2023-03-11T00:22:58.616Z,0.00
2023-03-11T00:23:58.403Z,0.00
2023-03-11T00:24:58.409Z,0.00
2023-03-11T00:25:58.388Z,0.00
2023-03-11T00:26:58.370Z,0.00
2023-03-11T00:27:58.361Z,0.00
2023-03-11T00:28:58.372Z,0.00
2023-03-11T00:29:58.332Z,0.00
2023-03-11T00:30:58.356Z,0.00
2023-03-11T00:31:58.310Z,0.00
2023-03-11T00:32:58.292Z,0.00
2023-03-11T00:33:58.280Z,0.00
2023-03-11T00:34:58.295Z,0.00
2023-03-11T00:35:58.280Z,0.00
2023-03-11T00:36:58.233Z,0.00
2023-03-11T00:37:58.232Z,0.00
2023-03-11T00:38:58.248Z,0.00
2023-03-11T00:39:58.200Z,0.00
2023-03-11T00:40:58.213Z,0.00
2023-03-11T00:41:58.177Z,0.00
2023-03-11T00:42:58.165Z,0.00
2023-03-11T00:43:58.146Z,0.00
2023-03-11T00:44:58.135Z,0.00
2023-03-11T00:45:58.221Z,0.00
2023-03-11T00:46:58.140Z,0.00
2023-03-11T00:47:58.108Z,0.00
2023-03-11T00:48:58.085Z,0.00
2023-03-11T00:49:58.068Z,0.00
2023-03-11T00:50:58.056Z,0.00
2023-03-11T00:51:58.047Z,0.00
2023-03-11T00:52:58.137Z,0.00
2023-03-11T00:53:58.020Z,0.00
2023-03-11T00:54:57.998Z,0.00
2023-03-11T00:55:57.990Z,0.00
2023-03-11T00:56:58.937Z,0.00
2023-03-11T00:57:57.971Z,0.00
2023-03-11T00:58:57.981Z,0.00
2023-03-11T00:59:57.942Z,0.00
2023-03-11T01:00:57.961Z,0.00
2023-03-11T01:01:57.914Z,0.00
2023-03-11T01:02:57.902Z,0.00
2023-03-11T01:03:57.883Z,0.00
2023-03-11T01:04:58.851Z,0.00
2023-03-11T01:05:57.856Z,0.00
2023-03-11T01:06:57.850Z,0.00
2023-03-11T01:07:57.838Z,0.00
2023-03-11T01:08:57.817Z,0.00
2023-03-11T01:09:57.805Z,0.00
2023-03-11T01:10:57.823Z,0.00
2023-03-11T01:11:57.802Z,0.00
2023-03-11T01:12:57.764Z,0.00
2023-03-11T01:13:57.760Z,0.00
2023-03-11T01:14:57.752Z,0.00
2023-03-11T01:15:57.744Z,0.00
2023-03-11T01:16:57.829Z,0.00
2023-03-11T01:17:57.719Z,0.00
2023-03-11T01:18:57.700Z,0.00
2023-03-11T01:19:57.679Z,0.00
2023-03-11T01:20:57.661Z,0.00
2023-03-11T01:21:57.654Z,0.00
2023-03-11T01:22:57.749Z,0.00
2023-03-11T01:23:57.632Z,0.00
2023-03-11T01:24:57.636Z,0.00
2023-03-11T01:25:57.634Z,0.00
2023-03-11T01:26:57.621Z,0.00
2023-03-11T01:27:57.599Z,0.00
2023-03-11T01:28:57.629Z,0.00
2023-03-11T01:29:57.588Z,0.00
2023-03-11T01:30:58.497Z,0.00
2023-03-11T01:31:58.475Z,0.00
2023-03-11T01:32:57.508Z,0.00
2023-03-11T01:33:57.506Z,0.00
2023-03-11T01:34:57.515Z,0.00
2023-03-11T01:35:57.509Z,0.00
2023-03-11T01:36:58.405Z,0.00
2023-03-11T01:37:57.453Z,0.00
2023-03-11T01:38:57.428Z,0.00
2023-03-11T01:39:57.416Z,0.00
2023-03-11T01:40:57.426Z,0.00
2023-03-11T01:41:57.429Z,0.00
2023-03-11T01:42:57.366Z,0.00
2023-03-11T01:43:57.367Z,0.00
2023-03-11T01:44:57.347Z,0.00
2023-03-11T01:45:57.353Z,0.00
2023-03-11T01:46:57.378Z,0.00
2023-03-11T01:47:57.308Z,0.00
2023-03-11T01:48:57.322Z,0.00
2023-03-11T01:49:57.290Z,0.00
2023-03-11T01:50:57.289Z,0.00
2023-03-11T01:51:57.261Z,0.00
2023-03-11T01:52:57.317Z,0.00
2023-03-11T01:53:57.240Z,0.00
2023-03-11T01:54:57.224Z,0.00
2023-03-11T01:55:57.212Z,0.00
2023-03-11T01:56:57.205Z,0.00
2023-03-11T01:57:57.182Z,0.00
2023-03-11T01:58:57.197Z,0.00
2023-03-11T01:59:57.162Z,0.00
2023-03-11T02:00:57.141Z,0.00
2023-03-11T02:01:57.166Z,0.00
2023-03-11T02:02:57.153Z,0.00
2023-03-11T02:03:57.101Z,0.00
2023-03-11T02:04:57.153Z,0.00
2023-03-11T02:05:57.080Z,0.00
2023-03-11T02:06:58.015Z,0.00
2023-03-11T02:07:57.056Z,0.00
2023-03-11T02:08:57.989Z,0.00
2023-03-11T02:09:57.025Z,0.00
2023-03-11T02:10:57.131Z,0.00
2023-03-11T02:11:57.001Z,0.00
2023-03-11T02:12:56.980Z,0.00
2023-03-11T02:13:56.971Z,0.00
2023-03-11T02:14:56.962Z,0.00
2023-03-11T02:15:56.989Z,0.00
2023-03-11T02:16:56.964Z,0.00
2023-03-11T02:17:56.941Z,0.00
2023-03-11T02:18:56.905Z,0.00
2023-03-11T02:19:56.906Z,0.00
2023-03-11T02:20:56.889Z,0.00
2023-03-11T02:21:56.878Z,0.00
2023-03-11T02:22:56.894Z,0.00
2023-03-11T02:23:56.856Z,0.00
2023-03-11T02:24:56.832Z,0.00
2023-03-11T02:25:56.821Z,0.00
2023-03-11T02:26:56.802Z,0.00
2023-03-11T02:27:56.804Z,0.00
2023-03-11T02:28:56.883Z,0.00
2023-03-11T02:29:56.847Z,0.00
2023-03-11T02:30:56.755Z,0.00
2023-03-11T02:31:56.813Z,0.00
2023-03-11T02:32:56.735Z,0.00
2023-03-11T02:33:56.732Z,0.00
2023-03-11T02:34:56.737Z,0.00
2023-03-11T02:35:56.731Z,0.00
2023-03-11T02:36:56.685Z,0.00
2023-03-11T02:37:56.675Z,0.00
2023-03-11T02:38:56.649Z,0.00
2023-03-11T02:39:56.650Z,0.00
2023-03-11T02:40:56.720Z,0.00
2023-03-11T02:41:56.620Z,0.00
2023-03-11T02:42:57.560Z,0.00
2023-03-11T02:43:56.591Z,0.00
2023-03-11T02:44:56.570Z,0.00
2023-03-11T02:45:57.522Z,0.00
2023-03-11T02:46:56.739Z,0.00
2023-03-11T02:47:56.562Z,0.00
2023-03-11T02:48:56.525Z,0.00
2023-03-11T02:49:56.520Z,0.00
2023-03-11T02:50:56.502Z,0.00
2023-03-11T02:51:56.488Z,0.00
2023-03-11T02:52:56.504Z,0.00
2023-03-11T02:53:56.472Z,0.00
2023-03-11T02:54:56.439Z,0.00
2023-03-11T02:55:56.441Z,0.00
2023-03-11T02:56:56.416Z,0.00
2023-03-11T02:57:56.415Z,0.00
2023-03-11T02:58:56.419Z,0.00
2023-03-11T02:59:56.388Z,0.00
2023-03-11T03:00:56.411Z,0.00
2023-03-11T03:01:56.351Z,0.00
2023-03-11T03:02:56.339Z,0.00
2023-03-11T03:03:56.435Z,0.00
2023-03-11T03:04:56.340Z,0.00
2023-03-11T03:05:56.302Z,0.00
2023-03-11T03:06:56.285Z,0.00
2023-03-11T03:07:56.277Z,0.00
2023-03-11T03:08:56.256Z,0.00
2023-03-11T03:09:56.265Z,0.00
2023-03-11T03:10:56.264Z,0.00
2023-03-11T03:11:56.224Z,0.00
2023-03-11T03:12:56.211Z,0.00
2023-03-11T03:13:57.150Z,0.00
2023-03-11T03:14:56.191Z,0.00
2023-03-11T03:15:56.176Z,0.00
2023-03-11T03:16:56.321Z,0.00
2023-03-11T03:17:56.148Z,0.00
2023-03-11T03:18:56.127Z,0.00
2023-03-11T03:19:56.127Z,0.00
2023-03-11T03:20:56.099Z,0.00
2023-03-11T03:21:56.098Z,0.00
2023-03-11T03:22:56.124Z,0.00
2023-03-11T03:23:56.076Z,0.00
2023-03-11T03:24:56.057Z,0.00
2023-03-11T03:25:56.046Z,0.00
2023-03-11T03:26:56.023Z,0.00
2023-03-11T03:27:56.027Z,0.00
2023-03-11T03:28:56.120Z,0.00
2023-03-11T03:29:55.994Z,0.00
2023-03-11T03:30:55.973Z,0.00
2023-03-11T03:31:55.997Z,0.00
2023-03-11T03:32:55.944Z,0.00
2023-03-11T03:33:55.941Z,0.00
2023-03-11T03:34:55.957Z,0.00
2023-03-11T03:35:55.966Z,0.00
2023-03-11T03:36:55.897Z,0.00
2023-03-11T03:37:55.887Z,0.00
2023-03-11T03:38:55.867Z,0.00
2023-03-11T03:39:55.866Z,0.00
2023-03-11T03:40:55.947Z,0.00
2023-03-11T03:41:55.838Z,0.00
2023-03-11T03:42:55.825Z,0.00
2023-03-11T03:43:55.811Z,0.00
2023-03-11T03:44:55.803Z,0.00
2023-03-11T03:45:55.813Z,0.00
2023-03-11T03:46:55.881Z,0.00
2023-03-11T03:47:55.762Z,0.00
2023-03-11T03:48:55.746Z,0.00
2023-03-11T03:49:55.732Z,0.00
2023-03-11T03:50:55.741Z,0.00
2023-03-11T03:51:55.712Z,0.00
2023-03-11T03:52:55.731Z,0.00
2023-03-11T03:53:55.691Z,0.00
2023-03-11T03:54:55.666Z,0.00
2023-03-11T03:55:55.663Z,0.00
2023-03-11T03:56:55.637Z,0.00
2023-03-11T03:57:55.637Z,0.00
2023-03-11T03:58:56.611Z,0.00
2023-03-11T03:59:55.608Z,0.00
2023-03-11T04:00:55.590Z,0.00
2023-03-11T04:01:55.622Z,0.00
2023-03-11T04:02:55.611Z,0.00
2023-03-11T04:03:55.553Z,0.00
2023-03-11T04:04:55.642Z,0.00
2023-03-11T04:05:55.532Z,0.00
2023-03-11T04:06:55.516Z,0.00
2023-03-11T04:07:55.519Z,0.00
2023-03-11T04:08:55.488Z,0.00
2023-03-11T04:09:55.480Z,0.00
2023-03-11T04:10:55.496Z,0.00
2023-03-11T04:11:55.455Z,0.00
2023-03-11T04:12:55.445Z,0.00
2023-03-11T04:13:55.435Z,0.00
2023-03-11T04:14:55.415Z,0.00
2023-03-11T04:15:55.408Z,0.00
2023-03-11T04:16:55.442Z,0.00
2023-03-11T04:17:55.381Z,0.00
2023-03-11T04:18:55.361Z,0.00
2023-03-11T04:19:55.367Z,0.00
2023-03-11T04:20:55.348Z,0.00
2023-03-11T04:21:55.337Z,0.00
2023-03-11T04:22:55.354Z,0.00
2023-03-11T04:23:55.303Z,0.00
2023-03-11T04:24:55.283Z,0.00
2023-03-11T04:25:55.273Z,0.00
2023-03-11T04:26:55.250Z,0.00
2023-03-11T04:27:55.243Z,0.00
2023-03-11T04:28:55.270Z,0.00
2023-03-11T04:29:56.204Z,0.00
2023-03-11T04:30:55.260Z,0.00
2023-03-11T04:31:56.142Z,0.00
2023-03-11T04:32:55.189Z,0.00
2023-03-11T04:33:55.171Z,0.00
2023-03-11T04:34:55.173Z,0.00
2023-03-11T04:35:55.157Z,0.00
2023-03-11T04:36:55.125Z,0.00
2023-03-11T04:37:55.113Z,0.00
2023-03-11T04:38:55.090Z,0.00
2023-03-11T04:39:55.089Z,0.00
2023-03-11T04:40:55.082Z,0.00
2023-03-11T04:41:55.053Z,0.00
2023-03-11T04:42:55.044Z,0.00
2023-03-11T04:43:55.024Z,0.00
2023-03-11T04:44:55.023Z,0.00
2023-03-11T04:45:55.041Z,0.00
2023-03-11T04:46:55.056Z,0.00
2023-03-11T04:47:54.975Z,0.00
2023-03-11T04:48:54.964Z,0.00
2023-03-11T04:49:54.956Z,0.00
2023-03-11T04:50:54.935Z,0.00
2023-03-11T04:51:54.929Z,0.00
2023-03-11T04:52:54.937Z,0.00
2023-03-11T04:53:54.901Z,0.00
2023-03-11T04:54:54.888Z,0.00
2023-03-11T04:55:54.876Z,0.00
2023-03-11T04:56:54.862Z,0.00
2023-03-11T04:57:54.849Z,0.00
2023-03-11T04:58:54.936Z,0.00
2023-03-11T04:59:54.815Z,0.00
2023-03-11T05:00:54.809Z,0.00
2023-03-11T05:01:54.801Z,0.00
2023-03-11T05:02:54.827Z,0.00
2023-03-11T05:03:54.773Z,0.00
2023-03-11T05:04:54.828Z,0.00
2023-03-11T05:05:54.731Z,0.00
2023-03-11T05:06:54.734Z,0.00
2023-03-11T05:07:54.714Z,0.00
2023-03-11T05:08:54.706Z,0.00
2023-03-11T05:09:54.684Z,0.00
2023-03-11T05:10:54.723Z,0.00
2023-03-11T05:11:54.663Z,0.00
2023-03-11T05:12:54.655Z,0.00
2023-03-11T05:13:54.640Z,0.00
2023-03-11T05:14:54.626Z,0.00
2023-03-11T05:15:54.652Z,0.00
2023-03-11T05:16:54.649Z,0.00
2023-03-11T05:17:54.591Z,0.00
2023-03-11T05:18:54.581Z,0.00
2023-03-11T05:19:54.573Z,1.00
2023-03-11T05:20:54.549Z,1.00
2023-03-11T05:21:54.528Z,1.00
2023-03-11T05:22:54.575Z,0.00
2023-03-11T05:23:54.510Z,0.00
2023-03-11T05:24:54.500Z,2.00
2023-03-11T05:25:54.481Z,2.00
2023-03-11T05:26:54.478Z,2.00
2023-03-11T05:27:54.451Z,0.00
2023-03-11T05:28:54.567Z,4.00
2023-03-11T05:29:54.430Z,2.00
2023-03-11T05:30:54.491Z,1.00
2023-03-11T05:31:54.464Z,5.00
2023-03-11T05:32:54.458Z,3.00
2023-03-11T05:33:55.333Z,9.00
2023-03-11T05:34:54.412Z,7.00
2023-03-11T05:35:54.395Z,4.00
2023-03-11T05:36:54.344Z,10.00
2023-03-11T05:37:54.336Z,19.00
2023-03-11T05:38:54.318Z,11.00
2023-03-11T05:39:54.299Z,22.00
2023-03-11T05:40:54.421Z,24.00
2023-03-11T05:41:54.281Z,25.00
2023-03-11T05:42:54.264Z,27.00
2023-03-11T05:43:54.252Z,32.00
2023-03-11T05:44:54.247Z,35.00
2023-03-11T05:45:55.184Z,42.00
2023-03-11T05:46:54.310Z,46.00
2023-03-11T05:47:54.197Z,53.00
2023-03-11T05:48:54.202Z,54.00
2023-03-11T05:49:54.191Z,69.00
2023-03-11T05:50:54.172Z,76.00
2023-03-11T05:51:55.617Z,87.00
2023-03-11T05:52:54.277Z,103.00
2023-03-11T05:53:54.119Z,106.00
2023-03-11T05:54:54.108Z,117.00
2023-03-11T05:55:54.098Z,124.00
2023-03-11T05:56:54.081Z,137.00
2023-03-11T05:57:54.114Z,138.00
2023-03-11T05:58:54.085Z,158.00
2023-03-11T05:59:54.041Z,166.00
2023-03-11T06:00:54.030Z,177.00
2023-03-11T06:01:54.020Z,195.00
2023-03-11T06:02:54.010Z,205.00
2023-03-11T06:03:54.099Z,208.00
2023-03-11T06:04:54.191Z,237.00
2023-03-11T06:05:53.959Z,246.00
2023-03-11T06:06:53.965Z,258.00
2023-03-11T06:07:53.930Z,280.00
2023-03-11T06:08:53.929Z,294.00
2023-03-11T06:09:53.911Z,306.00
2023-03-11T06:10:53.931Z,322.00
2023-03-11T06:11:53.885Z,335.00
2023-03-11T06:12:53.891Z,354.00
2023-03-11T06:13:53.854Z,379.00
2023-03-11T06:14:53.853Z,399.00
2023-03-11T06:15:53.852Z,409.00
2023-03-11T06:16:53.844Z,428.00
2023-03-11T06:17:53.803Z,435.00
2023-03-11T06:18:53.794Z,456.00
2023-03-11T06:19:53.780Z,474.00
2023-03-11T06:20:54.725Z,496.00
2023-03-11T06:21:53.766Z,516.00
2023-03-11T06:22:53.789Z,530.00
2023-03-11T06:23:53.727Z,557.00
2023-03-11T06:24:53.726Z,565.00
2023-03-11T06:25:53.701Z,587.00
2023-03-11T06:26:53.697Z,607.00
2023-03-11T06:27:53.675Z,623.00
2023-03-11T06:28:53.695Z,644.00
2023-03-11T06:29:53.657Z,670.00
2023-03-11T06:30:53.640Z,682.00
2023-03-11T06:31:53.689Z,690.00
2023-03-11T06:32:53.710Z,721.00
2023-03-11T06:33:53.599Z,741.00
2023-03-11T06:34:53.624Z,761.00
2023-03-11T06:35:53.599Z,785.00
2023-03-11T06:36:53.562Z,820.00
2023-03-11T06:37:53.552Z,867.00
2023-03-11T06:38:53.533Z,912.00
2023-03-11T06:39:53.542Z,976.00
2023-03-11T06:40:53.634Z,1033.00
2023-03-11T06:41:53.504Z,1101.00
2023-03-11T06:42:53.483Z,1170.00
2023-03-11T06:43:53.465Z,1266.00
2023-03-11T06:44:53.465Z,1373.00
2023-03-11T06:45:53.472Z,1507.00
2023-03-11T06:46:53.553Z,1683.00
2023-03-11T06:47:53.418Z,1938.00
2023-03-11T06:48:53.407Z,2355.00
2023-03-11T06:49:53.432Z,2802.00
2023-03-11T06:50:53.384Z,3210.00
2023-03-11T06:51:53.357Z,3495.00
2023-03-11T06:52:53.392Z,3628.00
2023-03-11T06:53:53.336Z,3735.00
2023-03-11T06:54:53.341Z,3835.00
2023-03-11T06:55:53.314Z,3935.00
2023-03-11T06:56:53.318Z,4037.00
2023-03-11T06:57:53.291Z,4147.00
2023-03-11T06:58:53.387Z,4238.00
2023-03-11T06:59:53.278Z,4355.00
2023-03-11T07:00:53.323Z,4529.00
2023-03-11T07:01:53.252Z,4724.00
2023-03-11T07:02:53.228Z,4896.00
2023-03-11T07:03:53.268Z,5040.00
2023-03-11T07:04:53.373Z,5150.00
2023-03-11T07:05:53.195Z,5228.00
2023-03-11T07:06:53.182Z,5332.00
2023-03-11T07:07:53.156Z,5409.00
2023-03-11T07:08:53.208Z,5496.00
2023-03-11T07:09:53.178Z,5565.00
2023-03-11T07:10:53.128Z,5650.00
2023-03-11T07:11:53.107Z,5709.00
2023-03-11T07:12:53.108Z,5780.00
2023-03-11T07:13:53.079Z,5856.00
2023-03-11T07:14:53.080Z,5945.00
2023-03-11T07:15:53.130Z,6031.00
2023-03-11T07:16:53.229Z,6102.00
2023-03-11T07:17:53.040Z,6239.00
2023-03-11T07:18:53.025Z,6809.00
2023-03-11T07:19:53.003Z,7143.00
2023-03-11T07:20:53.001Z,6852.00
2023-03-11T07:21:53.011Z,6543.00
2023-03-11T07:22:53.023Z,6477.00
2023-03-11T07:23:52.963Z,6467.00
2023-03-11T07:24:52.949Z,6488.00
2023-03-11T07:25:52.942Z,6563.00
2023-03-11T07:26:52.933Z,6608.00
2023-03-11T07:27:52.998Z,6655.00
2023-03-11T07:28:52.894Z,6417.00
2023-03-11T07:29:52.877Z,6683.00
2023-03-11T07:30:52.867Z,6650.00
2023-03-11T07:31:52.900Z,6605.00
2023-03-11T07:32:52.916Z,6636.00
2023-03-11T07:33:52.840Z,6706.00
2023-03-11T07:34:52.819Z,6737.00
2023-03-11T07:35:52.856Z,6800.00
2023-03-11T07:36:52.791Z,6857.00
2023-03-11T07:37:52.786Z,6957.00
2023-03-11T07:38:52.760Z,6980.00
2023-03-11T07:39:52.767Z,7031.00
2023-03-11T07:40:52.731Z,7031.00
2023-03-11T07:41:52.722Z,7047.00
2023-03-11T07:42:52.724Z,7078.00
2023-03-11T07:43:52.691Z,7095.00
2023-03-11T07:44:52.693Z,7098.00
2023-03-11T07:45:52.701Z,7119.00
2023-03-11T07:46:52.666Z,7127.00
2023-03-11T07:47:52.644Z,7154.00
2023-03-11T07:48:52.643Z,7178.00
2023-03-11T07:49:52.626Z,7166.00
2023-03-11T07:50:52.605Z,7185.00
2023-03-11T07:51:52.699Z,7165.00
2023-03-11T07:52:52.592Z,7154.00
2023-03-11T07:53:52.577Z,7171.00
2023-03-11T07:54:52.559Z,7173.00
2023-03-11T07:55:52.542Z,7191.00
2023-03-11T07:56:52.528Z,7174.00
2023-03-11T07:57:52.615Z,7170.00
2023-03-11T07:58:52.509Z,7169.00
2023-03-11T07:59:52.490Z,7162.00
2023-03-11T08:00:52.483Z,7118.00
2023-03-11T08:01:52.468Z,7142.00
2023-03-11T08:02:52.460Z,7115.00
2023-03-11T08:03:52.492Z,7105.00
2023-03-11T08:04:52.435Z,7078.00
2023-03-11T08:05:52.412Z,7061.00
2023-03-11T08:06:52.406Z,7050.00
2023-03-11T08:07:52.382Z,7054.00
2023-03-11T08:08:52.380Z,7020.00
2023-03-11T08:09:52.393Z,6993.00
2023-03-11T08:10:52.354Z,6977.00
2023-03-11T08:11:52.344Z,6952.00
2023-03-11T08:12:52.337Z,6925.00
2023-03-11T08:13:52.314Z,6889.00
2023-03-11T08:14:52.306Z,6862.00
2023-03-11T08:15:52.393Z,6838.00
2023-03-11T08:16:52.274Z,6801.00
2023-03-11T08:17:52.258Z,6763.00
2023-03-11T08:18:52.255Z,6730.00
2023-03-11T08:19:52.230Z,6697.00
2023-03-11T08:20:52.242Z,6670.00
2023-03-11T08:21:52.245Z,6639.00
2023-03-11T08:22:57.980Z,6595.00
2023-03-11T08:23:53.182Z,6567.00
2023-03-11T08:24:52.173Z,6536.00
2023-03-11T08:25:52.151Z,6482.00
2023-03-11T08:26:52.144Z,6433.00
2023-03-11T08:27:52.247Z,6396.00
2023-03-11T08:28:52.112Z,6361.00
2023-03-11T08:29:52.103Z,6311.00
2023-03-11T08:30:52.124Z,6257.00
2023-03-11T08:31:52.073Z,6208.00
2023-03-11T08:32:52.091Z,6158.00
2023-03-11T08:33:52.082Z,6112.00
2023-03-11T08:34:52.054Z,6079.00
2023-03-11T08:35:52.055Z,6036.00
2023-03-11T08:36:52.016Z,5966.00
2023-03-11T08:37:51.997Z,5915.00
2023-03-11T08:38:52.102Z,5874.00
2023-03-11T08:39:52.012Z,5807.00
2023-03-11T08:40:51.967Z,5756.00
2023-03-11T08:41:51.947Z,5706.00
2023-03-11T08:42:51.936Z,5666.00
2023-03-11T08:43:51.917Z,5596.00
2023-03-11T08:44:51.916Z,5543.00
2023-03-11T08:45:51.929Z,5478.00
2023-03-11T08:46:51.911Z,5416.00
2023-03-11T08:47:51.868Z,5356.00
2023-03-11T08:48:52.810Z,5306.00
2023-03-11T08:49:51.842Z,5256.00
2023-03-11T08:50:54.517Z,5185.00
2023-03-11T08:51:51.854Z,5132.00
2023-03-11T08:52:51.813Z,5091.00
2023-03-11T08:53:51.791Z,5031.00
2023-03-11T08:54:51.786Z,4972.00
2023-03-11T08:55:51.762Z,4921.00
2023-03-11T08:56:51.762Z,4855.00
2023-03-11T08:57:51.782Z,4795.00
2023-03-11T08:58:51.726Z,4727.00
2023-03-11T08:59:51.717Z,4665.00
2023-03-11T09:00:51.706Z,4600.00
2023-03-11T09:01:51.695Z,4487.00
2023-03-11T09:02:51.739Z,4466.00
2023-03-11T09:03:51.725Z,4420.00
2023-03-11T09:04:51.650Z,4338.00
2023-03-11T09:05:51.673Z,4267.00
2023-03-11T09:06:51.618Z,4222.00
2023-03-11T09:07:51.615Z,3989.00
2023-03-11T09:08:51.603Z,3908.00
2023-03-11T09:09:51.628Z,3790.00
2023-03-11T09:10:51.569Z,3939.00
2023-03-11T09:11:51.563Z,3867.00
2023-03-11T09:12:51.549Z,3790.00
2023-03-11T09:13:51.536Z,3711.00
2023-03-11T09:14:51.521Z,3652.00
2023-03-11T09:15:51.593Z,3577.00
2023-03-11T09:16:51.495Z,3506.00
2023-03-11T09:17:51.482Z,3432.00
2023-03-11T09:18:51.471Z,3362.00
2023-03-11T09:19:51.454Z,3296.00
2023-03-11T09:20:51.447Z,3236.00
2023-03-11T09:21:51.574Z,3157.00
2023-03-11T09:22:52.370Z,3098.00
2023-03-11T09:23:51.406Z,3025.00
2023-03-11T09:24:51.386Z,2968.00
2023-03-11T09:25:51.389Z,2896.00
2023-03-11T09:26:51.368Z,2831.00
2023-03-11T09:27:51.385Z,2763.00
2023-03-11T09:28:52.290Z,2697.00
2023-03-11T09:29:52.290Z,2644.00
2023-03-11T09:30:51.318Z,2571.00
2023-03-11T09:31:51.374Z,2501.00
2023-03-11T09:32:51.333Z,2462.00
2023-03-11T09:33:51.306Z,2413.00
2023-03-11T09:34:51.261Z,2348.00
2023-03-11T09:35:51.281Z,2295.00
2023-03-11T09:36:51.245Z,2244.00
2023-03-11T09:37:51.225Z,2211.00
2023-03-11T09:38:51.224Z,2180.00
2023-03-11T09:39:51.235Z,2145.00
2023-03-11T09:40:51.187Z,2110.00
2023-03-11T09:41:57.835Z,2070.00
2023-03-11T09:42:52.166Z,2030.00
2023-03-11T09:43:51.155Z,1989.00
2023-03-11T09:44:51.130Z,1957.00
2023-03-11T09:45:51.196Z,1830.00
2023-03-11T09:46:51.145Z,1808.00
2023-03-11T09:47:51.099Z,1784.00
2023-03-11T09:48:51.081Z,1813.00
2023-03-11T09:49:51.070Z,1793.00
2023-03-11T09:50:51.060Z,1767.00
2023-03-11T09:51:51.127Z,1736.00
2023-03-11T09:52:51.039Z,1714.00
2023-03-11T09:53:51.034Z,1690.00
2023-03-11T09:54:51.007Z,1677.00
2023-03-11T09:55:51.004Z,1632.00
2023-03-11T09:56:50.974Z,1614.00
2023-03-11T09:57:51.010Z,1623.00
2023-03-11T09:58:51.910Z,1603.00
2023-03-11T09:59:51.903Z,1584.00
2023-03-11T10:00:50.925Z,1575.00
2023-03-11T10:01:51.921Z,1463.00
2023-03-11T10:02:51.050Z,1364.00
2023-03-11T10:03:50.930Z,1388.00
2023-03-11T10:04:50.880Z,1459.00
2023-03-11T10:05:50.865Z,1520.00
2023-03-11T10:06:50.861Z,1518.00
2023-03-11T10:07:50.847Z,1511.00
2023-03-11T10:08:50.827Z,1501.00
2023-03-11T10:09:50.847Z,1496.00
2023-03-11T10:10:50.798Z,1505.00
2023-03-11T10:11:50.794Z,1493.00
2023-03-11T10:12:50.777Z,1505.00
2023-03-11T10:13:50.767Z,1505.00
2023-03-11T10:14:50.751Z,1497.00
2023-03-11T10:15:50.842Z,1489.00
2023-03-11T10:16:50.732Z,1488.00
2023-03-11T10:17:50.711Z,1477.00
2023-03-11T10:18:51.666Z,1468.00
2023-03-11T10:19:50.695Z,1458.00
2023-03-11T10:20:50.716Z,1444.00
2023-03-11T10:21:50.721Z,1434.00
2023-03-11T10:22:50.660Z,1421.00
2023-03-11T10:23:50.643Z,1413.00
2023-03-11T10:24:50.615Z,1402.00
2023-03-11T10:25:50.619Z,1395.00
2023-03-11T10:26:50.598Z,1390.00
2023-03-11T10:27:50.624Z,1382.00
2023-03-11T10:28:50.579Z,1378.00
2023-03-11T10:29:50.571Z,1372.00
2023-03-11T10:30:50.615Z,1367.00
2023-03-11T10:31:50.661Z,1363.00
2023-03-11T10:32:50.584Z,1360.00
2023-03-11T10:33:50.629Z,1349.00
2023-03-11T10:34:50.491Z,1343.00
2023-03-11T10:35:51.479Z,1339.00
2023-03-11T10:36:50.471Z,1348.00
2023-03-11T10:37:50.458Z,1336.00
2023-03-11T10:38:50.444Z,1332.00
2023-03-11T10:39:50.537Z,1339.00
2023-03-11T10:40:50.503Z,1342.00
2023-03-11T10:41:50.407Z,1347.00
2023-03-11T10:42:50.389Z,1341.00
2023-03-11T10:43:50.386Z,1340.00
2023-03-11T10:44:52.490Z,1336.00
2023-03-11T10:45:50.426Z,1327.00
2023-03-11T10:46:50.344Z,1331.00
2023-03-11T10:47:50.333Z,1326.00
2023-03-11T10:48:50.317Z,1321.00
2023-03-11T10:49:50.312Z,1320.00
2023-03-11T10:50:50.290Z,1318.00
2023-03-11T10:51:50.338Z,1316.00
2023-03-11T10:52:50.257Z,1300.00
2023-03-11T10:53:50.257Z,1302.00
2023-03-11T10:54:50.238Z,1298.00
2023-03-11T10:55:50.229Z,1296.00
2023-03-11T10:56:50.204Z,1291.00
2023-03-11T10:57:50.249Z,1283.00
2023-03-11T10:58:50.189Z,1229.00
2023-03-11T10:59:50.177Z,1256.00
2023-03-11T11:00:50.263Z,1267.00
2023-03-11T11:01:50.155Z,1273.00
2023-03-11T11:02:50.136Z,1273.00
2023-03-11T11:03:50.401Z,1269.00
2023-03-11T11:04:50.116Z,1268.00
2023-03-11T11:05:50.103Z,1263.00
2023-03-11T11:06:50.095Z,1262.00
2023-03-11T11:07:50.078Z,1261.00
2023-03-11T11:08:50.056Z,1260.00
2023-03-11T11:09:50.075Z,1239.00
2023-03-11T11:10:50.037Z,1227.00
2023-03-11T11:11:50.028Z,1224.00
2023-03-11T11:12:50.015Z,1223.00
2023-03-11T11:13:49.990Z,1215.00
2023-03-11T11:14:49.995Z,1222.00
2023-03-11T11:15:50.010Z,1204.00
2023-03-11T11:16:50.038Z,1219.00
2023-03-11T11:17:49.952Z,1219.00
2023-03-11T11:18:49.951Z,1219.00
2023-03-11T11:19:49.926Z,1216.00
2023-03-11T11:20:49.922Z,1212.00
2023-03-11T11:21:49.945Z,1224.00
2023-03-11T11:22:49.889Z,1236.00
2023-03-11T11:23:49.867Z,1235.00
2023-03-11T11:24:49.897Z,1235.00
2023-03-11T11:25:49.846Z,1239.00
2023-03-11T11:26:49.828Z,1240.00
2023-03-11T11:27:49.925Z,1234.00
2023-03-11T11:28:49.801Z,1230.00
2023-03-11T11:29:49.799Z,1229.00
2023-03-11T11:30:49.829Z,1228.00
2023-03-11T11:31:49.777Z,1219.00
2023-03-11T11:32:49.775Z,1217.00
2023-03-11T11:33:49.810Z,1213.00
2023-03-11T11:34:49.730Z,1207.00
2023-03-11T11:35:49.764Z,1213.00
2023-03-11T11:36:49.709Z,1211.00
2023-03-11T11:37:49.702Z,1208.00
2023-03-11T11:38:49.671Z,1193.00
2023-03-11T11:39:49.710Z,1163.00
2023-03-11T11:40:49.643Z,1163.00
2023-03-11T11:41:49.641Z,1155.00
2023-03-11T11:42:49.621Z,1164.00
2023-03-11T11:43:49.612Z,1171.00
2023-03-11T11:44:49.595Z,1173.00
2023-03-11T11:45:49.738Z,1175.00
2023-03-11T11:46:49.600Z,1185.00
2023-03-11T11:47:49.570Z,1178.00
2023-03-11T11:48:49.553Z,1162.00
2023-03-11T11:49:49.533Z,1152.00
2023-03-11T11:50:49.560Z,1140.00
2023-03-11T11:51:49.543Z,1135.00
2023-03-11T11:52:50.445Z,1128.00
2023-03-11T11:53:49.487Z,1124.00
2023-03-11T11:54:49.468Z,1139.00
2023-03-11T11:55:49.460Z,1170.00
2023-03-11T11:56:50.387Z,1189.00
2023-03-11T11:57:49.538Z,1201.00
2023-03-11T11:58:49.414Z,1201.00
2023-03-11T11:59:49.411Z,1199.00
2023-03-11T12:00:49.388Z,1097.00
2023-03-11T12:01:49.377Z,1168.00
2023-03-11T12:02:49.357Z,1152.00
2023-03-11T12:03:49.386Z,1137.00
2023-03-11T12:04:49.331Z,1100.00
2023-03-11T12:05:49.339Z,1090.00
2023-03-11T12:06:49.338Z,1098.00
2023-03-11T12:07:49.310Z,1128.00
2023-03-11T12:08:49.278Z,1121.00
2023-03-11T12:09:49.401Z,1129.00
2023-03-11T12:10:49.254Z,1128.00
2023-03-11T12:11:49.251Z,1125.00
2023-03-11T12:12:49.230Z,1120.00
2023-03-11T12:13:49.222Z,1089.00
2023-03-11T12:14:49.202Z,1097.00
2023-03-11T12:15:49.218Z,1083.00
2023-03-11T12:16:49.181Z,1057.00
2023-03-11T12:17:49.194Z,1061.00
2023-03-11T12:18:49.146Z,1081.00
2023-03-11T12:19:49.146Z,1080.00
2023-03-11T12:20:49.125Z,1065.00
2023-03-11T12:21:49.222Z,1056.00
2023-03-11T12:22:49.108Z,1025.00
2023-03-11T12:23:49.087Z,1082.00
2023-03-11T12:24:49.078Z,1104.00
2023-03-11T12:25:49.065Z,1127.00
2023-03-11T12:26:49.048Z,1121.00
2023-03-11T12:27:49.158Z,1091.00
2023-03-11T12:28:49.042Z,1080.00
2023-03-11T12:29:49.012Z,1092.00
2023-03-11T12:30:48.998Z,1126.00
2023-03-11T12:31:48.996Z,1117.00
2023-03-11T12:32:49.995Z,1117.00
2023-03-11T12:33:49.039Z,1070.00
2023-03-11T12:34:48.981Z,1071.00
2023-03-11T12:35:49.014Z,1095.00
2023-03-11T12:36:48.920Z,1121.00
2023-03-11T12:37:48.911Z,1064.00
2023-03-11T12:38:49.552Z,1034.00